Time;durP1;ratioP1;P1;durP2;ratioP2;P2;SDS_P1;SDS_P2;PMS_P1;PMS_P2;Temp;Humidity;BMP_temperature;BMP_pressure;BME280_temperature;BME280_humidity;BME280_pressure;Samples;Min_cycle;Max_cycle;Signal;HPM_P1;HPM_P2
2021/12/16 00:09:24;;;;;;;9.57;6.88;;;;;;;0.30;84.84;99663.94;5059966;28;20040;-60
2021/12/16 00:33:17;;;;;;;11.38;7.93;;;;;;;0.36;84.93;99630.09;5063613;28;20036;-60
2021/12/16 00:35:47;;;;;;;10.90;7.57;;;;;;;-0.21;84.89;99556.91;5063759;28;20322;-60
2021/12/16 00:38:13;;;;;;;9.90;7.10;;;;;;;0.19;84.71;99612.81;5042928;28;20385;-59
2021/12/16 00:40:41;;;;;;;12.02;8.00;;;;;;;0.21;84.72;99595.88;5054546;28;20039;-61
2021/12/16 00:54:11;;;;;;;12.07;8.48;;;;;;;0.33;85.16;99616.50;5012625;28;20346;-59
2021/12/16 00:57:06;;;;;;;11.20;7.57;;;;;;;0.23;85.13;99598.44;5014447;28;20033;-60
2021/12/16 00:59:37;;;;;;;11.77;8.23;;;;;;;0.09;85.61;99576.16;5025067;28;20099;-60
2021/12/16 01:35:47;;;;;;;11.25;7.70;;;;;;;0.28;84.99;99487.34;5023272;28;20029;-60
2021/12/16 01:50:38;;;;;;;9.02;7.28;;;;;;;0.32;85.34;99439.03;5062906;28;20064;-61
2021/12/16 01:55:46;;;;;;;9.52;6.70;;;;;;;-0.06;85.73;99387.50;5063166;28;20278;-60
2021/12/16 01:58:19;;;;;;;9.10;6.25;;;;;;;0.38;84.97;99420.44;5063132;28;20535;-61
2021/12/16 02:01:12;;;;;;;9.48;6.32;;;;;;;0.48;84.82;99429.09;5062129;28;20040;-60
2021/12/16 02:03:46;;;;;;;8.05;5.90;;;;;;;0.53;85.25;99424.94;5062117;28;20048;-61
2021/12/16 02:08:48;;;;;;;8.60;6.43;;;;;;;0.48;84.96;99424.84;5062552;28;20036;-61
2021/12/16 02:37:32;;;;;;;9.15;5.72;;;;;;;0.45;85.59;99352.63;5061836;28;20058;-60
2021/12/16 02:39:58;;;;;;;9.98;5.82;;;;;;;0.45;86.21;99338.19;5062276;28;20036;-61
2021/12/16 02:42:35;;;;;;;7.38;5.47;;;;;;;0.20;85.71;99296.25;5054864;28;20119;-61
2021/12/16 02:50:23;;;;;;;8.23;5.88;;;;;;;0.30;86.62;99299.78;5061008;28;20293;-61
2021/12/16 02:52:48;;;;;;;7.32;5.75;;;;;;;0.43;86.97;99294.03;5040798;28;20044;-61
2021/12/16 02:55:17;;;;;;;6.20;5.50;;;;;;;0.43;86.75;99308.44;5061109;28;20439;-62
2021/12/16 02:57:49;;;;;;;7.55;5.85;;;;;;;0.34;86.28;99283.69;5042846;28;20040;-62
2021/12/16 03:00:16;;;;;;;8.00;6.07;;;;;;;0.33;86.83;99312.56;5061009;28;20056;-61
2021/12/16 03:02:45;;;;;;;7.57;5.60;;;;;;;0.34;87.22;99337.19;5060590;28;20128;-61
2021/12/16 03:05:12;;;;;;;9.13;6.10;;;;;;;0.39;87.01;99327.94;5061072;28;20261;-60
2021/12/16 03:07:38;;;;;;;7.65;5.70;;;;;;;0.51;87.78;99323.00;5061301;28;20312;-60
2021/12/16 03:13:00;;;;;;;5.63;4.65;;;;;;;0.43;86.69;99299.13;5060913;28;20051;-61
2021/12/16 03:18:41;;;;;;;6.57;5.20;;;;;;;0.38;87.95;99290.53;5059194;28;20079;-61
2021/12/16 03:21:25;;;;;;;7.03;5.22;;;;;;;0.25;87.81;99255.56;5059354;28;20039;-61
2021/12/16 03:27:34;;;;;;;5.63;4.72;;;;;;;0.51;87.67;99287.34;5060921;28;20032;-62
2021/12/16 03:32:21;;;;;;;8.55;4.93;;;;;;;0.41;88.67;99277.84;5059715;28;19912;-62
2021/12/16 03:35:27;;;;;;;7.65;4.55;;;;;;;0.19;88.41;99222.41;5059737;28;20059;-61
2021/12/16 03:37:44;;;;;;;6.28;4.63;;;;;;;0.64;87.76;99269.63;5055396;28;20048;-61
2021/12/16 03:40:13;;;;;;;5.05;4.50;;;;;;;0.58;87.72;99265.31;5056692;28;20359;-60
2021/12/16 03:42:40;;;;;;;4.63;3.95;;;;;;;0.22;87.84;99192.72;5025775;28;20064;-61
2021/12/16 03:46:25;;;;;;;5.53;4.50;;;;;;;0.61;87.72;99252.63;5021339;28;20330;-61
2021/12/16 03:47:59;;;;;;;6.20;4.22;;;;;;;0.59;87.59;99254.31;5021180;28;20034;-60
2021/12/16 03:50:25;;;;;;;6.03;4.85;;;;;;;0.61;88.11;99260.25;5021711;28;20060;-59
2021/12/16 03:52:51;;;;;;;6.57;4.03;;;;;;;0.56;88.18;99264.47;5019974;28;20028;-61
2021/12/16 03:55:18;;;;;;;5.82;3.92;;;;;;;0.49;88.51;99260.97;5018747;28;20036;-60
2021/12/16 03:57:44;;;;;;;5.47;4.10;;;;;;;0.59;88.84;99269.59;5018455;28;20040;-59
2021/12/16 04:00:25;;;;;;;6.05;3.90;;;;;;;0.49;88.67;99260.97;5020065;28;20038;-60
2021/12/16 04:02:51;;;;;;;4.03;3.55;;;;;;;0.39;88.96;99241.31;5022712;28;20042;-60
2021/12/16 04:05:22;;;;;;;5.03;4.18;;;;;;;0.58;88.95;99278.06;5024460;28;20052;-61
2021/12/16 04:07:48;;;;;;;4.38;3.63;;;;;;;0.56;88.99;99253.44;5024897;28;20033;-60
2021/12/16 04:10:31;;;;;;;5.82;3.83;;;;;;;0.57;88.60;99237.28;5024056;28;20327;-61
2021/12/16 04:12:57;;;;;;;5.43;3.85;;;;;;;0.68;88.93;99241.69;5025437;28;20042;-60
2021/12/16 04:15:22;;;;;;;4.85;3.83;;;;;;;0.55;88.68;99239.81;5025062;28;20120;-61
2021/12/16 04:17:48;;;;;;;4.82;4.00;;;;;;;0.61;88.39;99226.28;5024569;28;20038;-62
2021/12/16 04:20:16;;;;;;;4.65;3.80;;;;;;;0.59;88.70;99231.38;5024886;28;20033;-63
2021/12/16 04:22:44;;;;;;;4.65;3.53;;;;;;;0.44;88.87;99198.94;5024609;28;20051;-61
2021/12/16 04:25:23;;;;;;;3.88;3.45;;;;;;;0.54;89.04;99209.22;5024285;28;20034;-62
2021/12/16 04:27:53;;;;;;;4.50;3.63;;;;;;;0.50;89.21;99223.63;5024104;28;20046;-62
2021/12/16 04:30:21;;;;;;;5.43;3.78;;;;;;;0.51;88.79;99205.81;5024884;28;20033;-61
2021/12/16 04:32:47;;;;;;;4.78;3.33;;;;;;;0.60;89.34;99188.91;5024254;28;20033;-61
2021/12/16 04:35:13;;;;;;;4.32;3.72;;;;;;;0.69;88.89;99202.59;5023710;28;20067;-61
2021/12/16 04:37:39;;;;;;;4.22;3.30;;;;;;;0.66;88.28;99204.28;5012392;28;20029;-62
2021/12/16 04:40:08;;;;;;;4.20;3.35;;;;;;;0.51;88.54;99174.38;5023630;28;20038;-61
2021/12/16 04:42:37;;;;;;;3.92;3.20;;;;;;;0.70;88.74;99195.84;5055803;28;20079;-62
2021/12/16 04:45:10;;;;;;;4.90;3.40;;;;;;;0.74;87.86;99197.56;5062286;28;20051;-61
2021/12/16 04:47:38;;;;;;;3.22;2.78;;;;;;;0.76;87.90;99200.97;5062338;28;20036;-58
2021/12/16 04:50:07;;;;;;;4.43;3.22;;;;;;;0.77;88.34;99205.25;5026115;28;20040;-59
2021/12/16 04:52:33;;;;;;;3.72;3.15;;;;;;;0.70;88.23;99185.63;5045267;28;20037;-58
2021/12/16 04:54:58;;;;;;;4.13;3.33;;;;;;;0.71;88.83;99183.94;5060762;28;20030;-60
2021/12/16 04:57:24;;;;;;;3.92;3.30;;;;;;;0.80;88.99;99189.97;5063089;28;20260;-60
2021/12/16 04:59:50;;;;;;;4.55;3.53;;;;;;;0.83;88.99;99184.06;5060948;28;20039;-59
2021/12/16 05:02:19;;;;;;;4.30;2.85;;;;;;;0.42;88.99;99125.91;5063501;28;20037;-59
2021/12/16 05:04:45;;;;;;;5.55;3.80;;;;;;;0.82;88.47;99190.00;5063014;28;20067;-59
2021/12/16 05:07:11;;;;;;;5.07;3.65;;;;;;;0.91;88.69;99199.41;5059038;28;20114;-58
2021/12/16 05:12:06;;;;;;;3.95;3.13;;;;;;;0.57;88.48;99130.28;5060134;28;20033;-58
2021/12/16 05:14:31;;;;;;;5.10;4.07;;;;;;;0.92;89.22;99191.78;5062283;28;20372;-59
2021/12/16 05:16:57;;;;;;;4.72;3.60;;;;;;;1.00;88.66;99191.88;5058719;28;20056;-58
2021/12/16 05:19:23;;;;;;;5.53;3.47;;;;;;;1.05;88.66;99187.66;5057429;28;20028;-58
2021/12/16 05:24:13;;;;;;;8.30;3.53;;;;;;;0.97;88.57;99164.66;5062267;28;20071;-58
2021/12/16 05:24:41;;;;;;;4.07;3.50;;;;;;;1.01;88.37;99181.69;5058103;28;20060;-58
2021/12/16 05:27:09;;;;;;;3.70;3.30;;;;;;;0.97;88.52;99189.28;5061567;28;20113;-58
2021/12/16 05:29:36;;;;;;;4.50;3.50;;;;;;;0.92;88.51;99163.75;5062018;28;20045;-58
2021/12/16 05:32:02;;;;;;;4.15;3.55;;;;;;;0.99;88.56;99167.22;5060013;28;20044;-58
2021/12/16 05:34:27;;;;;;;4.65;3.10;;;;;;;0.95;88.62;99162.91;5061995;28;20048;-58
2021/12/16 05:36:54;;;;;;;3.90;3.13;;;;;;;1.03;88.14;99177.44;5061362;28;20041;-57
2021/12/16 05:39:20;;;;;;;5.90;3.42;;;;;;;0.96;88.18;99174.84;5061588;28;20063;-58
2021/12/16 05:41:46;;;;;;;4.65;3.30;;;;;;;1.07;88.15;99165.59;5062194;28;20381;-57
2021/12/16 05:44:12;;;;;;;4.30;3.13;;;;;;;1.04;88.33;99160.44;5062580;28;20279;-58
2021/12/16 05:46:38;;;;;;;3.92;3.10;;;;;;;1.14;88.14;99152.03;5049262;28;20083;-58
2021/12/16 05:49:07;;;;;;;4.43;2.92;;;;;;;0.91;88.74;99146.72;5061976;28;20057;-58
2021/12/16 05:51:36;;;;;;;6.18;3.30;;;;;;;1.06;88.86;99138.38;5061926;28;20123;-58
2021/12/16 05:54:06;;;;;;;4.30;3.15;;;;;;;1.11;88.69;99131.63;5061490;28;20028;-58
2021/12/16 05:56:33;;;;;;;4.15;3.35;;;;;;;1.22;88.35;99138.50;5049620;28;20207;-59
2021/12/16 05:58:59;;;;;;;3.25;2.92;;;;;;;1.17;88.24;99131.66;5061266;28;20032;-58
2021/12/16 06:01:32;;;;;;;3.70;2.92;;;;;;;1.18;87.87;99148.69;5062260;28;20095;-58
2021/12/16 06:03:59;;;;;;;4.63;3.17;;;;;;;1.10;87.99;99123.94;5053162;28;20072;-59
2021/12/16 06:06:27;;;;;;;6.25;3.20;;;;;;;1.03;88.52;99115.41;5061457;28;20304;-58
2021/12/16 06:08:54;;;;;;;6.78;3.10;;;;;;;1.03;88.35;99113.69;5061443;28;20047;-59
2021/12/16 06:11:25;;;;;;;3.65;2.90;;;;;;;0.72;87.98;99065.88;5060998;28;20040;-59
2021/12/16 06:14:20;;;;;;;6.22;3.10;;;;;;;1.05;88.21;99105.22;5062395;28;20051;-57
2021/12/16 06:27:36;;;;;;;2.72;2.47;;;;;;;1.20;88.03;99118.09;5049711;28;20252;-59
2021/12/16 06:30:08;;;;;;;4.43;2.90;;;;;;;1.21;87.87;99101.91;5061268;28;20353;-58
2021/12/16 06:32:34;;;;;;;7.45;3.22;;;;;;;1.33;87.47;99111.38;5061422;28;20291;-58
2021/12/16 06:35:01;;;;;;;5.38;2.88;;;;;;;1.19;87.42;99109.56;5061433;28;20032;-58
2021/12/16 06:37:27;;;;;;;4.60;3.38;;;;;;;1.29;88.22;99113.03;5059264;28;20086;-58
2021/12/16 06:39:52;;;;;;;4.18;2.75;;;;;;;1.27;88.24;99111.31;5060706;28;20029;-58
2021/12/16 06:42:19;;;;;;;5.75;3.13;;;;;;;1.29;88.18;99114.75;5061456;28;20049;-59
2021/12/16 06:45:04;;;;;;;4.57;3.05;;;;;;;1.29;88.24;99102.00;5060268;28;20056;-59
2021/12/16 06:47:40;;;;;;;5.20;2.90;;;;;;;1.33;88.38;99101.16;5061666;28;20265;-58
2021/12/16 06:50:07;;;;;;;4.82;3.13;;;;;;;1.33;88.53;99098.63;5059571;28;20036;-58
2021/12/16 06:52:40;;;;;;;5.80;3.17;;;;;;;1.28;88.72;99105.38;5060664;28;20063;-59
2021/12/16 07:00:10;;;;;;;4.85;3.53;;;;;;;1.41;88.56;99096.09;5060772;28;20037;-58
2021/12/16 07:02:54;;;;;;;4.60;3.42;;;;;;;1.33;88.70;99088.41;5060971;28;20036;-59
2021/12/16 07:05:21;;;;;;;4.20;3.15;;;;;;;1.36;88.94;99096.09;5060192;28;20098;-59
2021/12/16 07:07:47;;;;;;;4.90;4.03;;;;;;;1.42;88.62;99092.72;5047282;28;20040;-59
2021/12/16 07:10:14;;;;;;;5.90;3.78;;;;;;;1.41;88.90;99096.09;5059187;28;20035;-59
2021/12/16 07:12:47;;;;;;;6.35;4.00;;;;;;;1.43;88.80;99102.91;5060157;28;20036;-59
2021/12/16 07:15:19;;;;;;;3.97;3.15;;;;;;;1.42;89.19;99113.97;5058738;28;20308;-59
2021/12/16 07:17:44;;;;;;;4.70;3.83;;;;;;;1.36;88.98;99099.47;5058000;28;20043;-60
2021/12/16 07:20:13;;;;;;;4.78;3.50;;;;;;;1.11;88.79;99044.06;5059222;28;20032;-58
2021/12/16 07:22:39;;;;;;;6.97;4.00;;;;;;;1.49;89.00;99112.31;5051577;28;20100;-58
2021/12/16 07:25:07;;;;;;;5.63;3.90;;;;;;;1.00;88.83;99038.91;5059316;28;20243;-59
2021/12/16 07:27:34;;;;;;;6.85;4.47;;;;;;;1.47;88.87;99102.09;5057851;28;20033;-59
2021/12/16 07:30:02;;;;;;;4.93;3.92;;;;;;;1.46;89.32;99107.19;5060437;28;20202;-59
2021/12/16 07:32:28;;;;;;;4.30;3.75;;;;;;;1.47;88.98;99113.97;5060084;28;20037;-59
2021/12/16 07:34:54;;;;;;;6.22;4.00;;;;;;;1.61;88.98;99106.41;5060055;28;20037;-60
2021/12/16 07:37:19;;;;;;;7.35;4.35;;;;;;;1.65;88.74;99110.69;5047625;28;20029;-58
2021/12/16 07:39:47;;;;;;;5.75;4.30;;;;;;;1.63;88.39;99099.63;5059401;28;20101;-59
2021/12/16 07:42:14;;;;;;;6.72;4.53;;;;;;;1.66;88.22;99102.19;5047103;28;20052;-58
2021/12/16 07:44:41;;;;;;;5.65;4.20;;;;;;;1.49;89.24;99099.56;5060779;28;20035;-58
2021/12/16 07:47:09;;;;;;;5.50;4.07;;;;;;;1.23;88.83;99048.38;5056631;28;20036;-59
2021/12/16 07:49:40;;;;;;;6.38;4.15;;;;;;;1.55;89.03;99100.44;5059275;28;20108;-58
2021/12/16 07:52:08;;;;;;;5.13;4.22;;;;;;;1.66;89.25;99104.75;5058736;28;20043;-59
2021/12/16 07:54:34;;;;;;;8.73;4.32;;;;;;;1.63;88.92;99081.78;5058443;28;20055;-59
2021/12/16 07:57:01;;;;;;;7.65;4.68;;;;;;;1.67;88.78;99084.34;5058241;28;20029;-60
2021/12/16 07:59:29;;;;;;;7.00;4.72;;;;;;;1.32;88.87;99030.59;5045157;28;20068;-59
2021/12/16 08:01:55;;;;;;;9.85;4.90;;;;;;;1.65;89.03;99086.00;5058520;28;20029;-60
2021/12/16 08:04:27;;;;;;;7.95;4.28;;;;;;;1.73;88.80;99076.69;5058417;28;20107;-58
2021/12/16 08:06:55;;;;;;;8.45;4.68;;;;;;;1.81;88.05;99081.84;5056645;28;20991;-59
2021/12/16 08:09:22;;;;;;;8.35;5.10;;;;;;;1.81;88.52;99058.88;5058641;28;20040;-59
2021/12/16 08:11:50;;;;;;;7.82;5.07;;;;;;;1.80;88.40;99067.38;5044564;28;20037;-59
2021/12/16 08:14:17;;;;;;;6.25;4.57;;;;;;;1.76;88.95;99067.38;5046541;28;20052;-59
2021/12/16 08:16:44;;;;;;;7.60;4.80;;;;;;;1.67;89.59;99060.53;5058794;28;20342;-59
2021/12/16 08:19:10;;;;;;;6.72;4.82;;;;;;;1.75;89.83;99048.63;5046343;28;20040;-58
2021/12/16 08:21:38;;;;;;;7.78;4.63;;;;;;;1.81;89.61;99048.66;5060416;28;20056;-59
2021/12/16 08:24:09;;;;;;;8.48;5.07;;;;;;;1.58;89.82;98994.13;5059943;28;20044;-59
2021/12/16 08:26:37;;;;;;;8.68;4.90;;;;;;;1.77;89.95;99048.63;5059561;28;20037;-59
2021/12/16 08:29:04;;;;;;;8.55;5.28;;;;;;;1.81;89.84;99048.66;5058694;28;20037;-58
2021/12/16 08:31:30;;;;;;;9.95;4.95;;;;;;;1.76;90.09;99049.50;5058768;28;20086;-59
2021/12/16 08:33:57;;;;;;;9.05;5.32;;;;;;;1.84;90.03;99048.69;5058359;28;20025;-59
2021/12/16 08:36:23;;;;;;;10.15;5.20;;;;;;;1.79;90.06;99026.53;5058544;28;20055;-58
2021/12/16 08:38:49;;;;;;;9.48;5.85;;;;;;;1.84;90.14;99040.16;5059019;28;20032;-58
2021/12/16 08:41:22;;;;;;;9.90;5.38;;;;;;;1.44;90.25;98976.22;5057746;28;20052;-59
2021/12/16 08:43:49;;;;;;;11.55;5.22;;;;;;;1.84;90.21;99033.34;5059689;28;20048;-59
2021/12/16 08:46:17;;;;;;;7.15;4.85;;;;;;;1.90;89.80;99014.66;5059729;28;20040;-59
2021/12/16 08:48:46;;;;;;;8.82;5.43;;;;;;;1.73;90.11;99010.34;5061113;28;20043;-58
2021/12/16 08:51:14;;;;;;;6.75;5.05;;;;;;;1.93;89.71;99029.97;5062397;28;20408;-59
2021/12/16 08:53:40;;;;;;;9.60;5.40;;;;;;;1.87;90.18;99033.38;5063780;28;20040;-58
2021/12/16 08:56:07;;;;;;;6.50;4.70;;;;;;;1.86;89.73;99030.81;5063002;28;20067;-60
2021/12/16 08:58:37;;;;;;;7.90;5.15;;;;;;;1.89;90.18;99026.53;5064312;28;20885;-59
2021/12/16 09:01:12;;;;;;;8.15;5.30;;;;;;;1.50;90.10;98956.69;5062839;28;20033;-59
2021/12/16 09:03:38;;;;;;;9.73;5.20;;;;;;;1.88;89.82;99024.88;5063015;28;20152;-59
2021/12/16 09:06:04;;;;;;;8.60;5.32;;;;;;;1.72;90.57;99018.00;5050265;28;20555;-58
2021/12/16 09:08:31;;;;;;;8.65;5.22;;;;;;;1.79;90.87;99012.06;5062757;28;20067;-59
2021/12/16 09:10:57;;;;;;;11.60;5.63;;;;;;;1.84;90.73;99012.06;5062580;28;20037;-60
2021/12/16 09:13:24;;;;;;;12.13;5.82;;;;;;;1.86;90.80;99006.13;5062675;28;20055;-58
2021/12/16 09:15:53;;;;;;;7.95;5.90;;;;;;;1.99;90.17;99024.88;5063501;28;20044;-58
2021/12/16 09:18:23;;;;;;;8.95;5.57;;;;;;;1.90;90.18;98989.13;5062309;28;20028;-59
2021/12/16 09:20:50;;;;;;;7.30;5.20;;;;;;;2.00;90.50;98992.56;5060929;28;20029;-59
2021/12/16 09:23:16;;;;;;;8.65;6.30;;;;;;;1.97;90.01;98982.34;5060505;28;20690;-59
2021/12/16 09:25:45;;;;;;;10.75;5.85;;;;;;;1.60;90.19;98932.03;5062788;28;20376;-58
2021/12/16 09:28:11;;;;;;;11.57;6.05;;;;;;;1.94;90.20;98970.41;5062037;28;20029;-59
2021/12/16 09:30:37;;;;;;;7.32;5.32;;;;;;;2.00;89.95;98970.41;5062315;28;20063;-58
2021/12/16 09:33:07;;;;;;;6.60;5.18;;;;;;;1.97;89.86;98955.09;5062567;28;20225;-60
2021/12/16 09:35:37;;;;;;;10.18;5.28;;;;;;;1.97;89.97;98951.69;5062819;28;20040;-59
2021/12/16 09:38:05;;;;;;;10.90;5.45;;;;;;;2.10;89.49;98957.66;5062989;28;20106;-61
2021/12/16 09:40:35;;;;;;;10.32;6.38;;;;;;;2.06;89.60;98949.13;5063175;28;20088;-59
2021/12/16 09:43:02;;;;;;;8.55;5.47;;;;;;;2.10;89.80;98952.56;5064319;28;20043;-60
2021/12/16 09:45:28;;;;;;;9.80;5.70;;;;;;;2.07;89.63;98971.28;5062120;28;20040;-60
2021/12/16 09:47:54;;;;;;;8.20;5.72;;;;;;;2.09;89.87;98961.91;5062082;28;20040;-61
2021/12/16 09:50:27;;;;;;;6.82;4.75;;;;;;;2.21;89.26;98977.25;5061841;28;20044;-60
2021/12/16 09:52:53;;;;;;;8.52;5.35;;;;;;;2.23;88.79;98979.81;5062563;28;20078;-60
2021/12/16 09:55:19;;;;;;;9.35;5.15;;;;;;;2.09;89.15;98981.50;5061548;28;20093;-60
2021/12/16 09:57:45;;;;;;;7.85;5.63;;;;;;;2.06;89.49;98967.00;5062427;28;20046;-60
2021/12/16 10:00:13;;;;;;;8.05;5.45;;;;;;;2.15;89.28;98964.50;5062189;28;20028;-60
2021/12/16 10:02:39;;;;;;;9.85;4.97;;;;;;;2.24;89.12;98956.81;5062065;28;20088;-60
2021/12/16 10:05:07;;;;;;;8.43;5.53;;;;;;;2.17;88.42;98934.69;5061926;28;20040;-61
2021/12/16 10:07:33;;;;;;;9.82;5.05;;;;;;;2.16;88.92;98937.22;5062848;28;20024;-60
2021/12/16 10:10:02;;;;;;;6.78;5.18;;;;;;;2.14;88.78;98924.47;5049830;28;20033;-61
2021/12/16 10:12:34;;;;;;;9.40;4.65;;;;;;;2.26;88.85;98927.88;5062255;28;20032;-61
2021/12/16 10:15:07;;;;;;;6.70;4.35;;;;;;;2.19;88.82;98920.19;5049281;28;20110;-60
2021/12/16 10:17:40;;;;;;;7.90;4.57;;;;;;;2.15;89.71;98930.41;5061606;28;20123;-61
2021/12/16 10:20:21;;;;;;;5.88;4.32;;;;;;;1.86;89.15;98873.38;5062131;28;20070;-61
2021/12/16 10:22:47;;;;;;;8.57;5.55;;;;;;;2.20;89.32;98909.13;5061114;28;20033;-60
2021/12/16 10:25:30;;;;;;;7.53;4.60;;;;;;;2.27;89.44;98911.66;5062293;28;20032;-60
2021/12/16 10:28:04;;;;;;;6.53;4.93;;;;;;;2.13;89.08;98916.81;5061537;28;20040;-61
2021/12/16 10:30:39;;;;;;;8.05;4.72;;;;;;;2.17;89.81;98903.19;5049278;28;20095;-60
2021/12/16 10:33:29;;;;;;;8.48;5.22;;;;;;;2.16;90.04;98904.03;5061588;28;20068;-59
2021/12/16 10:36:30;;;;;;;5.13;4.63;;;;;;;2.06;89.81;98901.47;5048369;28;20692;-60
2021/12/16 10:39:36;;;;;;;7.22;4.68;;;;;;;2.05;90.16;98891.25;5062434;28;20060;-60
2021/12/16 10:42:07;;;;;;;7.00;5.13;;;;;;;2.10;90.26;98902.31;5033790;28;20057;-59
2021/12/16 10:44:37;;;;;;;7.03;4.93;;;;;;;2.09;89.89;98887.84;5022357;28;20527;-59
2021/12/16 10:47:11;;;;;;;11.50;5.30;;;;;;;2.09;90.09;98890.41;5022366;28;20578;-59
2021/12/16 10:49:42;;;;;;;6.30;4.38;;;;;;;2.14;89.98;98913.38;5022365;28;20314;-59
2021/12/16 10:52:11;;;;;;;5.80;4.17;;;;;;;2.03;89.95;98891.25;5022466;28;20033;-59
2021/12/16 10:54:41;;;;;;;7.15;4.88;;;;;;;2.13;89.65;98899.78;5021509;28;20586;-60
2021/12/16 10:57:22;;;;;;;6.07;4.15;;;;;;;2.14;90.23;98885.28;5022115;28;20567;-60
2021/12/16 10:59:58;;;;;;;5.97;4.60;;;;;;;1.81;89.54;98813.81;5021589;28;20421;-61
2021/12/16 11:02:27;;;;;;;7.07;4.53;;;;;;;2.28;89.46;98892.94;5022101;28;20810;-58
2021/12/16 11:05:00;;;;;;;7.72;4.55;;;;;;;1.96;89.15;98819.78;5021180;28;20197;-61
2021/12/16 11:07:35;;;;;;;10.57;4.90;;;;;;;2.27;89.18;98879.34;5019216;28;20247;-59
2021/12/16 11:10:25;;;;;;;9.32;5.07;;;;;;;1.89;89.15;98806.16;5019868;28;20041;-59
2021/12/16 11:13:02;;;;;;;7.07;4.65;;;;;;;2.24;88.74;98858.91;5020549;28;20041;-60
2021/12/16 11:15:39;;;;;;;5.45;4.15;;;;;;;2.31;89.24;98859.72;5020442;28;20100;-60
2021/12/16 11:18:31;;;;;;;6.80;3.95;;;;;;;2.37;88.73;98849.53;5019728;28;20045;-59
2021/12/16 11:21:02;;;;;;;6.38;4.60;;;;;;;2.04;88.42;98787.44;5008486;28;20113;-60
2021/12/16 11:23:32;;;;;;;5.78;4.75;;;;;;;2.44;88.50;98865.66;5020927;28;20079;-60
2021/12/16 11:26:03;;;;;;;7.28;4.60;;;;;;;2.46;88.25;98835.88;5021034;28;20064;-59
2021/12/16 11:28:35;;;;;;;6.78;3.88;;;;;;;2.50;88.00;98845.22;5019564;28;20037;-60
2021/12/16 11:31:12;;;;;;;9.05;4.40;;;;;;;2.16;87.70;98778.88;5009437;28;20635;-60
2021/12/16 11:33:48;;;;;;;6.95;4.05;;;;;;;2.50;88.08;98825.63;5020960;28;20029;-61
2021/12/16 11:36:17;;;;;;;5.00;3.97;;;;;;;2.33;88.09;98818.00;5021145;28;20041;-60
2021/12/16 11:38:48;;;;;;;7.88;4.38;;;;;;;2.45;88.21;98809.44;5021670;28;20111;-60
2021/12/16 11:41:25;;;;;;;10.90;4.53;;;;;;;2.50;88.32;98805.19;5029129;28;20246;-59
2021/12/16 11:44:06;;;;;;;6.43;4.25;;;;;;;2.56;88.06;98810.25;5059666;28;20035;-60
2021/12/16 11:46:48;;;;;;;6.28;4.20;;;;;;;2.45;88.07;98812.00;5060663;28;20346;-60
2021/12/16 11:49:38;;;;;;;7.88;4.05;;;;;;;2.42;87.79;98786.47;5038665;28;20075;-60
2021/12/16 11:52:13;;;;;;;10.63;4.25;;;;;;;2.52;87.83;98812.84;5060680;28;20114;-61
2021/12/16 11:54:53;;;;;;;6.68;4.15;;;;;;;2.51;87.66;98819.66;5060780;28;20040;-60
2021/12/16 11:57:38;;;;;;;5.18;3.88;;;;;;;2.32;87.74;98784.78;5060178;28;20090;-59
2021/12/16 12:00:18;;;;;;;4.57;4.10;;;;;;;2.46;87.57;98806.03;5059360;28;20048;-59
2021/12/16 12:02:47;;;;;;;5.18;3.70;;;;;;;2.47;87.67;98815.41;5060204;28;20036;-59
2021/12/16 12:05:24;;;;;;;6.75;4.10;;;;;;;2.38;88.74;98821.41;5060164;28;20028;-59
2021/12/16 12:07:59;;;;;;;8.00;4.40;;;;;;;2.37;88.77;98834.19;5060584;28;20035;-59
2021/12/16 12:10:36;;;;;;;4.07;3.58;;;;;;;2.38;88.78;98823.09;5060413;28;20083;-60
2021/12/16 12:13:06;;;;;;;6.82;3.72;;;;;;;2.41;89.16;98828.22;5060007;28;20318;-59
2021/12/16 12:15:53;;;;;;;11.15;5.13;;;;;;;2.39;89.17;98819.69;5060586;28;20047;-60
2021/12/16 12:18:40;;;;;;;7.72;6.45;;;;;;;2.39;88.91;98820.56;5060882;28;20258;-59
2021/12/16 12:21:26;;;;;;;9.10;7.10;;;;;;;2.05;88.75;98753.34;5059098;28;20047;-59
2021/12/16 12:23:56;;;;;;;7.63;6.55;;;;;;;2.13;88.88;98761.84;5058088;28;20033;-59
2021/12/16 12:26:23;;;;;;;9.02;6.03;;;;;;;2.44;89.30;98806.91;5059783;28;20385;-60
2021/12/16 12:28:53;;;;;;;9.18;5.40;;;;;;;2.06;89.67;98781.44;5064550;28;20025;-59
2021/12/16 12:31:23;;;;;;;7.50;4.70;;;;;;;1.89;89.59;98740.63;5063505;28;20040;-60
2021/12/16 12:33:49;;;;;;;7.60;5.18;;;;;;;2.30;89.86;98806.97;5043211;28;20090;-59
2021/12/16 12:36:19;;;;;;;9.23;4.90;;;;;;;2.28;90.25;98796.75;5063009;28;20051;-59
2021/12/16 12:38:45;;;;;;;7.22;5.05;;;;;;;2.36;89.92;98809.47;5063893;28;20028;-60
2021/12/16 12:41:11;;;;;;;5.65;4.20;;;;;;;2.26;91.03;98806.09;5064343;28;20056;-60
2021/12/16 12:43:37;;;;;;;8.38;4.72;;;;;;;2.19;91.32;98806.97;5050217;28;20118;-59
2021/12/16 12:46:07;;;;;;;6.28;4.63;;;;;;;2.24;91.05;98803.56;5064254;28;20048;-58
2021/12/16 12:48:36;;;;;;;6.57;4.43;;;;;;;2.17;91.17;98783.97;5063252;28;20180;-59
2021/12/16 12:51:04;;;;;;;6.90;4.20;;;;;;;1.89;91.21;98737.22;5064435;28;20053;-60
2021/12/16 12:53:38;;;;;;;5.72;4.15;;;;;;;2.13;91.27;98761.00;5063993;28;20103;-61
2021/12/16 12:56:21;;;;;;;6.93;4.57;;;;;;;2.26;91.27;98769.50;5063810;28;20089;-59
2021/12/16 12:58:58;;;;;;;6.93;4.00;;;;;;;1.95;91.68;98711.66;5063173;28;20093;-59
2021/12/16 13:02:12;;;;;;;6.80;4.35;;;;;;;2.28;92.20;98778.00;5063105;28;20060;-59
2021/12/16 13:04:51;;;;;;;6.20;3.92;;;;;;;2.05;92.01;98761.88;4982034;28;20109;-60
2021/12/16 13:07:17;;;;;;;6.10;4.50;;;;;;;2.26;92.11;98775.44;4980888;28;20048;-59
2021/12/16 13:09:50;;;;;;;4.60;3.92;;;;;;;2.34;91.25;98775.44;4978222;28;20042;-59
2021/12/16 13:12:23;;;;;;;8.25;3.97;;;;;;;2.36;91.92;98771.16;4980479;28;20034;-58
2021/12/16 13:14:51;;;;;;;4.70;4.07;;;;;;;2.28;91.71;98765.22;4982743;28;20074;-59
2021/12/16 13:29:07;;;;;;;6.18;4.35;;;;;;;2.35;90.55;98749.00;4981146;28;20094;-59
2021/12/16 13:32:04;;;;;;;9.15;4.20;;;;;;;2.08;90.68;98702.28;4981592;28;20137;-59
2021/12/16 13:34:51;;;;;;;7.65;4.20;;;;;;;1.98;90.15;98692.94;4994981;28;20157;-60
2021/12/16 13:37:39;;;;;;;5.35;3.90;;;;;;;2.42;90.81;98766.88;5062946;28;20039;-60
2021/12/16 13:40:19;;;;;;;6.70;4.18;;;;;;;2.35;90.47;98751.56;5059632;28;20080;-59
2021/12/16 13:42:45;;;;;;;6.10;4.20;;;;;;;2.42;91.13;98750.69;5026962;28;20073;-60
2021/12/16 13:45:17;;;;;;;9.10;4.65;;;;;;;2.39;90.51;98735.38;5023286;28;20038;-60
2021/12/16 14:02:33;;;;;;;8.93;3.97;;;;;;;2.57;89.20;98719.97;5022216;28;20317;-59
2021/12/16 14:07:56;;;;;;;8.07;3.90;;;;;;;2.67;89.46;98704.59;5022605;28;20034;-59
2021/12/16 14:10:34;;;;;;;5.95;3.55;;;;;;;2.31;89.32;98642.59;5022382;28;20382;-61
2021/12/16 14:17:16;;;;;;;12.40;4.13;;;;;;;2.15;88.54;98621.38;5023974;28;20037;-63
2021/12/16 14:25:44;;;;;;;9.20;3.75;;;;;;;2.53;88.70;98669.72;5023204;28;20261;-59
2021/12/16 14:37:13;;;;;;;5.35;3.38;;;;;;;2.53;89.14;98681.66;5022716;28;20314;-59
2021/12/16 14:42:43;;;;;;;5.80;3.00;;;;;;;2.16;89.49;98613.72;5010683;28;20081;-59
2021/12/16 14:45:40;;;;;;;7.90;3.50;;;;;;;2.51;89.55;98671.44;5022709;28;20355;-60
2021/12/16 14:50:33;;;;;;;4.38;2.72;;;;;;;2.45;89.29;98668.91;5019944;28;20108;-60
2021/12/16 14:52:59;;;;;;;6.10;3.63;;;;;;;2.50;89.47;98664.63;5020603;28;20084;-60
2021/12/16 14:55:26;;;;;;;3.78;3.10;;;;;;;2.56;89.57;98667.16;5021923;28;20065;-58
2021/12/16 14:57:55;;;;;;;4.80;2.95;;;;;;;2.61;88.80;98681.59;5021265;28;20037;-59
2021/12/16 15:00:29;;;;;;;5.60;3.00;;;;;;;2.56;88.80;98697.81;5021103;28;20045;-60
2021/12/16 15:03:19;;;;;;;5.32;3.00;;;;;;;2.18;88.64;98616.25;5019304;28;20102;-60
2021/12/16 15:05:50;;;;;;;3.13;2.80;;;;;;;2.45;89.29;98660.41;5021810;28;20048;-59
2021/12/16 15:08:23;;;;;;;4.55;3.60;;;;;;;2.55;89.19;98667.16;5021871;28;20029;-60
2021/12/16 15:10:50;;;;;;;9.20;3.95;;;;;;;2.57;88.89;98662.91;5021574;28;20029;-60
2021/12/16 15:13:24;;;;;;;5.43;3.40;;;;;;;2.55;88.65;98655.25;5021599;28;20029;-59
2021/12/16 15:16:08;;;;;;;5.72;3.65;;;;;;;2.50;88.99;98651.84;5020748;28;20130;-60
2021/12/16 15:42:52;;;;;;;4.85;3.75;;;;;;;2.23;89.24;98597.50;5053228;28;20040;-59
2021/12/16 15:45:27;;;;;;;5.93;3.60;;;;;;;2.60;89.56;98652.66;5059840;28;20353;-60
2021/12/16 15:47:57;;;;;;;6.38;4.07;;;;;;;2.52;89.67;98657.81;5059153;28;20040;-60
2021/12/16 15:50:36;;;;;;;5.35;3.53;;;;;;;2.53;88.97;98636.50;5058962;28;20252;-59
2021/12/16 15:53:08;;;;;;;5.70;3.95;;;;;;;2.58;89.37;98668.00;5060117;28;20044;-59